createdAt,value
2022-09-16T00:01:13.653Z,98768.66
2022-09-16T00:03:42.049Z,98768.53
2022-09-16T00:06:19.056Z,98771.56
2022-09-16T00:08:47.114Z,98771.34
2022-09-16T00:11:15.353Z,98756.56
2022-09-16T00:13:43.575Z,98757.41
2022-09-16T00:16:19.228Z,98752.03
2022-09-16T00:18:47.402Z,98759.06
2022-09-16T00:21:16.844Z,98757.66
2022-09-16T00:23:44.847Z,98755.00
2022-09-16T00:26:12.831Z,98756.34
2022-09-16T00:28:41.423Z,98752.47
2022-09-16T00:31:09.519Z,98747.75
2022-09-16T00:33:37.916Z,98748.16
2022-09-16T00:36:08.064Z,98762.75
2022-09-16T00:38:38.339Z,98758.56
2022-09-16T00:41:07.358Z,98752.69
2022-09-16T00:43:54.694Z,98750.50
2022-09-16T00:46:28.386Z,98772.00
2022-09-16T00:48:56.607Z,98769.56
2022-09-16T00:51:25.507Z,98768.16
2022-09-16T00:54:00.518Z,98767.47
2022-09-16T00:56:29.967Z,98771.44
2022-09-16T00:59:04.263Z,98763.94
2022-09-16T01:01:33.637Z,98775.75
2022-09-16T01:04:05.747Z,98771.00
2022-09-16T01:06:39.187Z,98776.06
2022-09-16T01:09:08.965Z,98788.97
2022-09-16T01:11:36.979Z,98795.25
2022-09-16T01:14:24.338Z,98783.25
2022-09-16T01:17:02.119Z,98782.25
2022-09-16T01:19:50.951Z,98787.53
2022-09-16T01:22:38.925Z,98794.34
2022-09-16T01:25:20.235Z,98795.22
2022-09-16T01:28:10.979Z,98790.50
2022-09-16T01:30:54.820Z,98788.19
2022-09-16T01:33:37.840Z,98793.34
2022-09-16T01:36:18.356Z,98790.16
2022-09-16T01:39:08.222Z,98783.09
2022-09-16T01:41:44.869Z,98785.09
2022-09-16T01:44:23.776Z,98783.63
2022-09-16T01:47:03.091Z,98783.34
2022-09-16T01:49:41.090Z,98785.81
2022-09-16T01:52:21.118Z,98783.94
2022-09-16T01:54:52.871Z,98780.06
2022-09-16T01:57:25.967Z,98777.66
2022-09-16T01:59:59.663Z,98770.88
2022-09-16T02:02:34.906Z,98779.56
2022-09-16T02:05:08.217Z,98771.63
2022-09-16T02:07:41.677Z,98771.63
2022-09-16T02:10:17.232Z,98771.38
2022-09-16T02:12:47.500Z,98776.88
2022-09-16T02:15:22.226Z,98770.09
2022-09-16T02:17:55.053Z,98780.31
2022-09-16T02:20:27.577Z,98779.22
2022-09-16T02:23:01.783Z,98785.50
2022-09-16T02:25:32.903Z,98785.13
2022-09-16T02:28:04.479Z,98793.16
2022-09-16T02:30:34.061Z,98793.41
2022-09-16T02:33:09.353Z,98792.91
2022-09-16T02:35:40.583Z,98795.88
2022-09-16T02:38:13.839Z,98803.66
2022-09-16T02:40:49.374Z,98795.22
2022-09-16T02:43:17.875Z,98811.88
2022-09-16T02:45:52.814Z,98814.72
2022-09-16T02:48:32.355Z,98827.91
2022-09-16T02:51:07.172Z,98821.28
2022-09-16T02:53:44.400Z,98823.03
2022-09-16T02:56:20.187Z,98827.06
2022-09-16T02:58:48.214Z,98818.91
2022-09-16T03:01:17.531Z,98820.13
2022-09-16T03:03:47.589Z,98821.31
2022-09-16T03:06:19.085Z,98814.63
2022-09-16T03:08:48.542Z,98808.44
2022-09-16T03:11:48.809Z,98800.69
2022-09-16T03:14:32.539Z,98809.81
2022-09-16T03:17:13.311Z,98806.66
2022-09-16T03:19:54.859Z,98821.19
2022-09-16T03:22:37.388Z,98814.13
2022-09-16T03:25:12.131Z,98807.16
2022-09-16T03:27:47.344Z,98805.72
2022-09-16T03:30:15.424Z,98806.22
2022-09-16T03:32:50.195Z,98800.41
2022-09-16T03:35:25.848Z,98802.81
2022-09-16T03:37:56.023Z,98796.97
2022-09-16T03:40:25.518Z,98794.19
2022-09-16T03:42:53.610Z,98813.56
2022-09-16T03:45:23.718Z,98809.03
2022-09-16T03:47:53.343Z,98805.53
2022-09-16T03:50:23.727Z,98800.56
2022-09-16T03:52:51.834Z,98796.63
2022-09-16T03:55:21.194Z,98784.41
2022-09-16T03:57:49.254Z,98777.19
2022-09-16T04:00:17.397Z,98777.03
2022-09-16T04:02:45.572Z,98780.66
2022-09-16T04:05:13.758Z,98785.81
2022-09-16T04:07:43.208Z,98785.88
2022-09-16T04:10:12.595Z,98785.44
2022-09-16T04:12:40.810Z,98786.22
2022-09-16T04:15:09.768Z,98790.94
2022-09-16T04:17:38.010Z,98797.22
2022-09-16T04:20:08.227Z,98795.75
2022-09-16T04:22:36.244Z,98798.94
2022-09-16T04:25:06.246Z,98808.16
2022-09-16T04:27:34.285Z,98806.31
2022-09-16T04:30:02.263Z,98796.06
2022-09-16T04:32:30.259Z,98794.72
2022-09-16T04:34:58.260Z,98805.91
2022-09-16T04:37:26.364Z,98812.84
2022-09-16T04:39:54.540Z,98808.78
2022-09-16T04:42:24.100Z,98794.38
2022-09-16T04:44:52.096Z,98803.56
2022-09-16T04:47:20.148Z,98808.69
2022-09-16T04:49:48.272Z,98811.63
2022-09-16T04:52:16.333Z,98799.06
2022-09-16T04:54:44.324Z,98805.25
2022-09-16T04:57:12.472Z,98807.81
2022-09-16T04:59:41.939Z,98813.06
2022-09-16T05:02:09.958Z,98817.63
2022-09-16T05:04:38.104Z,98817.72
2022-09-16T05:07:06.306Z,98814.44
2022-09-16T05:09:34.283Z,98827.13
2022-09-16T05:12:02.634Z,98840.16
2022-09-16T05:14:30.823Z,98837.63
2022-09-16T05:17:00.291Z,98830.34
2022-09-16T05:19:28.358Z,98832.75
2022-09-16T05:21:56.685Z,98833.97
2022-09-16T05:24:24.756Z,98821.28
2022-09-16T05:26:52.815Z,98811.16
2022-09-16T05:29:20.888Z,98811.72
2022-09-16T05:31:48.906Z,98804.53
2022-09-16T05:34:21.581Z,98791.97
2022-09-16T05:36:50.821Z,98795.50
2022-09-16T05:39:24.275Z,98797.44
2022-09-16T05:41:56.077Z,98797.22
2022-09-16T05:44:24.192Z,98803.72
2022-09-16T05:46:52.428Z,98797.38
2022-09-16T05:49:22.149Z,98795.91
2022-09-16T05:51:50.980Z,98792.44
2022-09-16T05:54:19.522Z,98792.34
2022-09-16T05:56:48.669Z,98789.09
2022-09-16T05:59:18.114Z,98788.72
2022-09-16T06:01:46.913Z,98788.00
2022-09-16T06:04:16.758Z,98782.53
2022-09-16T06:06:47.736Z,98785.38
2022-09-16T06:09:18.066Z,98783.41
2022-09-16T06:11:47.683Z,98777.81
2022-09-16T06:14:16.567Z,98785.94
2022-09-16T06:16:44.824Z,98787.19
2022-09-16T06:19:15.519Z,98784.09
2022-09-16T06:21:45.856Z,98776.59
2022-09-16T06:24:15.309Z,98774.31
2022-09-16T06:26:45.298Z,98773.63
2022-09-16T06:29:13.676Z,98781.81
2022-09-16T06:31:42.130Z,98777.38
2022-09-16T06:34:15.535Z,98788.06
2022-09-16T06:36:45.350Z,98791.13
2022-09-16T06:39:17.209Z,98788.78
2022-09-16T06:41:45.577Z,98788.38
2022-09-16T06:44:13.644Z,98781.31
2022-09-16T06:46:41.739Z,98781.16
2022-09-16T06:49:11.251Z,98770.56
2022-09-16T06:51:39.363Z,98765.72
2022-09-16T06:54:10.180Z,98778.94
2022-09-16T06:56:51.441Z,98777.50
2022-09-16T06:59:20.243Z,98787.94
2022-09-16T07:01:48.289Z,98790.09
2022-09-16T07:04:18.037Z,98785.19
2022-09-16T07:09:35.714Z,98796.41
2022-09-16T07:12:05.763Z,98805.34
2022-09-16T07:14:33.908Z,98792.38
2022-09-16T07:17:02.445Z,98799.44
2022-09-16T07:19:30.883Z,98794.50
2022-09-16T07:21:58.946Z,98805.41
2022-09-16T07:24:27.134Z,98808.16
2022-09-16T07:26:55.148Z,98795.63
2022-09-16T07:29:24.982Z,98797.63
2022-09-16T07:31:53.498Z,98780.38
2022-09-16T07:34:21.775Z,98777.63
2022-09-16T07:36:50.818Z,98787.94
2022-09-16T07:39:21.216Z,98784.81
2022-09-16T07:41:49.787Z,98789.75
2022-09-16T07:44:19.989Z,98800.91
2022-09-16T07:46:51.230Z,98793.34
2022-09-16T07:49:19.672Z,98798.06
2022-09-16T07:51:47.735Z,98798.78
2022-09-16T07:54:18.348Z,98796.03
2022-09-16T07:56:46.777Z,98789.44
2022-09-16T07:59:18.857Z,98783.13
2022-09-16T08:01:51.038Z,98784.88
2022-09-16T08:04:20.446Z,98796.56
2022-09-16T08:06:49.477Z,98787.66
2022-09-16T08:12:08.016Z,98791.13
2022-09-16T08:14:36.632Z,98785.69
2022-09-16T08:17:06.197Z,98783.09
2022-09-16T08:19:34.605Z,98777.34
2022-09-16T08:22:02.994Z,98767.00
2022-09-16T08:24:31.019Z,98763.44
2022-09-16T08:26:59.088Z,98760.31
2022-09-16T08:29:27.305Z,98761.81
2022-09-16T08:31:56.050Z,98765.53
2022-09-16T08:34:26.097Z,98746.66
2022-09-16T08:36:54.437Z,98746.66
2022-09-16T08:39:22.748Z,98751.78
2022-09-16T08:42:25.663Z,98748.94
2022-09-16T08:45:02.095Z,98747.63
2022-09-16T08:47:42.917Z,98748.38
2022-09-16T08:50:17.516Z,98751.41
2022-09-16T08:52:47.552Z,98750.66
2022-09-16T08:55:19.958Z,98741.72
2022-09-16T08:57:56.189Z,98736.47
2022-09-16T09:00:24.458Z,98735.22
2022-09-16T09:02:56.811Z,98722.81
2022-09-16T09:05:35.397Z,98722.50
2022-09-16T09:08:29.962Z,98723.25
2022-09-16T09:11:03.759Z,98721.78
2022-09-16T09:13:57.695Z,98715.63
2022-09-16T09:16:36.525Z,98713.16
2022-09-16T09:19:18.375Z,98719.03
2022-09-16T09:21:55.884Z,98715.69
2022-09-16T09:24:48.332Z,98719.53
2022-09-16T09:27:21.119Z,98713.53
2022-09-16T09:30:04.717Z,98719.41
2022-09-16T09:32:49.831Z,98714.19
2022-09-16T09:35:31.794Z,98712.16
2022-09-16T09:38:33.669Z,98697.47
2022-09-16T09:41:09.601Z,98692.19
2022-09-16T09:43:44.881Z,98688.34
2022-09-16T09:46:23.502Z,98689.34
2022-09-16T09:48:58.974Z,98671.75
2022-09-16T09:51:32.877Z,98680.09
2022-09-16T09:54:07.039Z,98668.56
2022-09-16T09:56:41.189Z,98669.25
2022-09-16T09:59:20.575Z,98668.25
2022-09-16T10:01:48.983Z,98668.06
2022-09-16T10:04:17.352Z,98668.09
2022-09-16T10:06:47.167Z,98670.13
2022-09-16T10:09:18.259Z,98660.44
2022-09-16T10:11:53.041Z,98668.34
2022-09-16T10:14:27.211Z,98653.09
2022-09-16T10:16:56.435Z,98654.31
2022-09-16T10:19:26.572Z,98646.84
2022-09-16T10:21:56.876Z,98648.25
2022-09-16T10:24:33.395Z,98641.25
2022-09-16T10:27:03.438Z,98645.00
2022-09-16T10:29:31.378Z,98648.00
2022-09-16T10:32:07.425Z,98649.75
2022-09-16T10:34:39.858Z,98654.44
2022-09-16T10:37:19.200Z,98659.88
2022-09-16T10:39:54.059Z,98655.19
2022-09-16T10:42:24.711Z,98650.09
2022-09-16T10:44:55.335Z,98651.41
2022-09-16T10:47:25.891Z,98653.53
2022-09-16T10:49:56.649Z,98649.56
2022-09-16T10:52:26.786Z,98646.53
2022-09-16T10:54:57.680Z,98642.34
2022-09-16T10:57:29.030Z,98637.94
2022-09-16T11:00:02.153Z,98644.97
2022-09-16T11:02:50.337Z,98637.00
2022-09-16T11:05:26.164Z,98633.81
2022-09-16T11:08:01.043Z,98637.22
2022-09-16T11:10:40.806Z,98629.09
2022-09-16T11:13:24.106Z,98620.22
2022-09-16T11:16:05.154Z,98613.16
2022-09-16T11:18:50.683Z,98614.44
2022-09-16T11:21:47.337Z,98604.91
2022-09-16T11:24:43.538Z,98591.19
2022-09-16T11:27:23.736Z,98596.59
2022-09-16T11:30:11.040Z,98605.38
2022-09-16T11:33:05.397Z,98589.38
2022-09-16T11:35:46.021Z,98596.28
2022-09-16T11:38:25.583Z,98598.38
2022-09-16T11:41:00.626Z,98589.72
2022-09-16T11:43:46.870Z,98579.94
2022-09-16T11:46:23.618Z,98579.53
2022-09-16T11:49:05.220Z,98570.31
2022-09-16T11:51:48.741Z,98563.16
2022-09-16T11:54:34.768Z,98557.00
2022-09-16T11:57:06.070Z,98564.28
2022-09-16T11:59:41.993Z,98564.16
2022-09-16T12:02:19.154Z,98558.00
2022-09-16T12:04:54.856Z,98548.97
2022-09-16T12:07:29.497Z,98559.72
2022-09-16T12:10:02.096Z,98559.84
2022-09-16T12:12:33.936Z,98569.69
2022-09-16T12:15:07.403Z,98575.03
2022-09-16T12:17:38.824Z,98574.97
2022-09-16T12:20:11.325Z,98573.63
2022-09-16T12:22:44.556Z,98573.59
2022-09-16T12:25:18.650Z,98571.44
2022-09-16T12:27:52.583Z,98572.53
2022-09-16T12:30:25.319Z,98567.22
2022-09-16T12:33:00.930Z,98561.91
2022-09-16T12:35:34.161Z,98579.13
2022-09-16T12:38:02.202Z,98582.03
2022-09-16T12:40:38.346Z,98605.03
2022-09-16T12:43:30.887Z,98598.31
2022-09-16T12:46:23.980Z,98605.19
2022-09-16T12:49:07.044Z,98592.19
2022-09-16T12:52:02.645Z,98596.75
2022-09-16T12:55:14.427Z,98605.91
2022-09-16T12:57:57.889Z,98615.72
2022-09-16T13:00:29.383Z,98637.06
2022-09-16T13:03:01.687Z,98620.88
2022-09-16T13:05:33.414Z,98610.72
2022-09-16T13:08:05.787Z,98618.63
2022-09-16T13:10:55.037Z,98621.38
2022-09-16T13:13:33.783Z,98638.91
2022-09-16T13:16:04.265Z,98641.00
2022-09-16T13:18:43.848Z,98640.84
2022-09-16T13:21:26.212Z,98641.97
2022-09-16T13:24:03.289Z,98649.13
2022-09-16T13:26:41.461Z,98640.59
2022-09-16T13:29:27.649Z,98648.00
2022-09-16T13:34:26.631Z,98647.84
2022-09-16T13:36:54.608Z,98640.22
2022-09-16T13:39:31.573Z,98643.81
2022-09-16T13:42:11.988Z,98650.63
2022-09-16T13:44:44.585Z,98652.22
2022-09-16T13:47:30.958Z,98647.38
2022-09-16T13:50:07.096Z,98644.03
2022-09-16T13:52:36.268Z,98641.50
2022-09-16T13:55:11.957Z,98627.78
2022-09-16T13:57:53.270Z,98639.72
2022-09-16T14:00:23.831Z,98646.09
2022-09-16T14:03:05.172Z,98658.56
2022-09-16T14:06:03.052Z,98670.81
2022-09-16T14:08:43.324Z,98681.22
2022-09-16T14:11:18.467Z,98680.19
2022-09-16T14:13:50.559Z,98664.22
2022-09-16T14:16:21.744Z,98672.34
2022-09-16T14:18:57.471Z,98668.78
2022-09-16T14:21:27.118Z,98660.38
2022-09-16T14:23:55.179Z,98656.06
2022-09-16T14:26:25.263Z,98646.66
2022-09-16T14:29:03.675Z,98651.75
2022-09-16T14:31:33.784Z,98651.44
2022-09-16T14:34:11.537Z,98657.03
2022-09-16T14:36:49.817Z,98669.75
2022-09-16T14:39:20.848Z,98668.97
2022-09-16T14:41:52.355Z,98674.56
2022-09-16T14:44:26.350Z,98665.69
2022-09-16T14:47:07.515Z,98662.38
2022-09-16T14:49:39.534Z,98667.47
2022-09-16T14:52:20.955Z,98673.06
2022-09-16T14:54:49.293Z,98678.91
2022-09-16T14:57:21.185Z,98688.81
2022-09-16T14:59:50.479Z,98673.56
2022-09-16T15:02:24.294Z,98683.97
2022-09-16T15:04:55.017Z,98676.59
2022-09-16T15:07:28.298Z,98677.13
2022-09-16T15:10:00.781Z,98683.00
2022-09-16T15:12:31.928Z,98674.84
2022-09-16T15:15:04.462Z,98665.69
2022-09-16T15:17:32.748Z,98671.28
2022-09-16T15:20:01.304Z,98671.75
2022-09-16T15:22:30.818Z,98667.16
2022-09-16T15:25:00.728Z,98653.69
2022-09-16T15:27:33.332Z,98666.41
2022-09-16T15:30:06.008Z,98668.09
2022-09-16T15:32:45.885Z,98676.94
2022-09-16T15:35:25.789Z,98671.06
2022-09-16T15:37:56.997Z,98673.31
2022-09-16T15:40:35.929Z,98666.16
2022-09-16T15:43:26.256Z,98666.09
2022-09-16T15:46:03.272Z,98661.25
2022-09-16T15:48:35.383Z,98650.78
2022-09-16T15:51:08.285Z,98651.53
2022-09-16T15:53:42.978Z,98652.81
2022-09-16T15:56:22.956Z,98653.03
2022-09-16T15:58:55.187Z,98651.50
2022-09-16T16:01:39.077Z,98656.34
2022-09-16T16:04:10.017Z,98656.34
2022-09-16T16:06:50.573Z,98654.44
2022-09-16T16:09:39.866Z,98648.06
2022-09-16T16:12:11.132Z,98642.41
2022-09-16T16:14:40.634Z,98635.22
2022-09-16T16:17:13.598Z,98629.09
2022-09-16T16:19:43.981Z,98602.94
2022-09-16T16:22:12.617Z,98615.81
2022-09-16T16:24:42.021Z,98623.94
2022-09-16T16:27:10.776Z,98623.63
2022-09-16T16:29:39.521Z,98628.91
2022-09-16T16:32:12.994Z,98630.16
2022-09-16T16:34:42.661Z,98626.53
2022-09-16T16:37:27.906Z,98633.59
2022-09-16T16:40:04.195Z,98628.94
2022-09-16T16:42:32.279Z,98631.41
2022-09-16T16:45:00.258Z,98630.78
2022-09-16T16:47:28.343Z,98624.66
2022-09-16T16:49:56.741Z,98628.44
2022-09-16T16:52:24.751Z,98625.59
2022-09-16T16:54:52.795Z,98621.69
2022-09-16T16:57:22.322Z,98616.06
2022-09-16T16:59:50.435Z,98599.38
2022-09-16T17:02:18.575Z,98591.72
2022-09-16T17:04:46.758Z,98581.28
2022-09-16T17:07:25.733Z,98589.09
2022-09-16T17:09:54.954Z,98588.06
2022-09-16T17:12:24.504Z,98596.81
2022-09-16T17:14:52.567Z,98608.44
2022-09-16T17:17:20.659Z,98619.47
2022-09-16T17:19:48.667Z,98618.63
2022-09-16T17:22:17.140Z,98609.44
2022-09-16T17:24:45.494Z,98600.56
2022-09-16T17:27:14.735Z,98610.06
2022-09-16T17:29:44.256Z,98607.13
2022-09-16T17:32:12.567Z,98606.59
2022-09-16T17:34:41.601Z,98601.94
2022-09-16T17:37:09.613Z,98601.47
2022-09-16T17:39:38.428Z,98595.06
2022-09-16T17:42:06.951Z,98585.50
2022-09-16T17:44:34.930Z,98591.44
2022-09-16T17:47:04.938Z,98594.63
2022-09-16T17:49:33.028Z,98588.97
2022-09-16T17:52:01.218Z,98588.41
2022-09-16T17:54:29.625Z,98585.53
2022-09-16T17:56:57.600Z,98586.69
2022-09-16T17:59:25.982Z,98594.75
2022-09-16T18:01:54.194Z,98591.56
2022-09-16T18:04:23.814Z,98592.44
2022-09-16T18:06:52.320Z,98595.13
2022-09-16T18:09:20.363Z,98601.44
2022-09-16T18:11:48.790Z,98603.63
2022-09-16T18:14:20.209Z,98592.91
2022-09-16T18:16:51.456Z,98579.56
2022-09-16T18:19:19.660Z,98589.13
2022-09-16T18:21:49.101Z,98602.53
2022-09-16T18:24:17.522Z,98604.53
2022-09-16T18:26:45.947Z,98611.44
2022-09-16T18:29:15.229Z,98605.78
2022-09-16T18:31:46.558Z,98601.28
2022-09-16T18:34:16.140Z,98597.91
2022-09-16T18:36:44.951Z,98599.75
2022-09-16T18:39:17.560Z,98603.13
2022-09-16T18:41:46.672Z,98612.84
2022-09-16T18:44:17.161Z,98616.41
2022-09-16T18:46:45.270Z,98605.94
2022-09-16T18:49:14.832Z,98597.06
2022-09-16T18:51:49.892Z,98599.13
2022-09-16T18:54:25.224Z,98609.34
2022-09-16T18:56:55.805Z,98607.34
2022-09-16T18:59:26.922Z,98612.22
2022-09-16T19:01:57.733Z,98621.00
2022-09-16T19:04:27.569Z,98627.53
2022-09-16T19:06:59.430Z,98630.72
2022-09-16T19:09:29.136Z,98615.16
2022-09-16T19:11:57.228Z,98613.03
2022-09-16T19:14:27.504Z,98605.91
2022-09-16T19:16:56.073Z,98610.00
2022-09-16T19:19:24.229Z,98617.63
2022-09-16T19:21:52.521Z,98612.81
2022-09-16T19:24:22.874Z,98613.75
2022-09-16T19:26:54.844Z,98604.81
2022-09-16T19:29:23.333Z,98612.06
2022-09-16T19:31:53.495Z,98604.50
2022-09-16T19:34:22.649Z,98592.22
2022-09-16T19:36:51.724Z,98613.97
2022-09-16T19:39:21.315Z,98602.28
2022-09-16T19:41:49.632Z,98597.25
2022-09-16T19:44:19.795Z,98586.69
2022-09-16T19:46:49.422Z,98582.56
2022-09-16T19:49:20.127Z,98587.22
2022-09-16T19:51:49.791Z,98584.59
2022-09-16T19:54:18.562Z,98591.53
2022-09-16T19:56:50.482Z,98581.38
2022-09-16T19:59:22.247Z,98569.94
2022-09-16T20:01:50.934Z,98580.91
2022-09-16T20:04:21.131Z,98568.78
2022-09-16T20:06:50.177Z,98562.94
2022-09-16T20:09:19.767Z,98574.47
2022-09-16T20:11:48.997Z,98576.94
2022-09-16T20:14:19.141Z,98582.38
2022-09-16T20:16:49.536Z,98570.59
2022-09-16T20:19:20.114Z,98571.22
2022-09-16T20:21:48.421Z,98559.03
2022-09-16T20:24:18.425Z,98571.97
2022-09-16T20:26:47.133Z,98570.44
2022-09-16T20:29:17.791Z,98569.25
2022-09-16T20:31:46.437Z,98570.31
2022-09-16T20:34:16.436Z,98577.72
2022-09-16T20:36:45.516Z,98570.50
2022-09-16T20:39:14.443Z,98578.31
2022-09-16T20:41:43.537Z,98567.41
2022-09-16T20:44:13.885Z,98574.94
2022-09-16T20:46:41.897Z,98575.84
2022-09-16T20:49:14.712Z,98575.72
2022-09-16T20:51:44.951Z,98563.13
2022-09-16T20:54:14.995Z,98570.78
2022-09-16T20:56:44.490Z,98564.53
2022-09-16T20:59:14.385Z,98571.13
2022-09-16T21:01:43.353Z,98583.88
2022-09-16T21:04:14.077Z,98584.97
2022-09-16T21:06:44.732Z,98583.56
2022-09-16T21:09:14.585Z,98579.59
2022-09-16T21:11:45.109Z,98575.91
2022-09-16T21:14:16.302Z,98590.47
2022-09-16T21:16:45.957Z,98584.81
2022-09-16T21:19:14.685Z,98589.41
2022-09-16T21:21:47.828Z,98583.56
2022-09-16T21:24:16.762Z,98587.25
2022-09-16T21:26:46.159Z,98593.88
2022-09-16T21:29:16.331Z,98600.78
2022-09-16T21:31:44.810Z,98605.88
2022-09-16T21:34:15.361Z,98609.25
2022-09-16T21:36:45.720Z,98597.56
2022-09-16T21:39:14.947Z,98600.00
2022-09-16T21:41:43.065Z,98592.63
2022-09-16T21:44:11.860Z,98587.25
2022-09-16T21:46:45.199Z,98596.78
2022-09-16T21:49:19.899Z,98594.31
2022-09-16T21:51:50.632Z,98595.56
2022-09-16T21:54:20.583Z,98588.63
2022-09-16T21:56:49.515Z,98586.00
2022-09-16T21:59:19.569Z,98579.84
2022-09-16T22:01:48.129Z,98580.28
2022-09-16T22:04:17.787Z,98576.28
2022-09-16T22:06:46.067Z,98568.91
2022-09-16T22:09:15.682Z,98567.41
2022-09-16T22:11:44.052Z,98566.47
2022-09-16T22:14:12.565Z,98562.94
2022-09-16T22:16:41.527Z,98565.09
2022-09-16T22:19:11.239Z,98559.41
2022-09-16T22:21:42.083Z,98549.28
2022-09-16T22:24:10.954Z,98552.81
2022-09-16T22:26:40.762Z,98546.03
2022-09-16T22:29:09.515Z,98540.69
2022-09-16T22:31:39.826Z,98525.50
2022-09-16T22:34:08.352Z,98521.78
2022-09-16T22:36:37.614Z,98517.94
2022-09-16T22:39:08.044Z,98519.47
2022-09-16T22:41:36.264Z,98513.44
2022-09-16T22:44:06.054Z,98521.28
2022-09-16T22:46:35.712Z,98510.06
2022-09-16T22:49:03.903Z,98521.56
2022-09-16T22:51:32.810Z,98530.44
2022-09-16T22:54:01.332Z,98522.50
2022-09-16T22:56:32.170Z,98524.81
2022-09-16T22:59:02.123Z,98503.16
2022-09-16T23:01:34.790Z,98508.69
2022-09-16T23:04:05.483Z,98497.31
2022-09-16T23:06:34.864Z,98494.53
2022-09-16T23:09:03.180Z,98500.66
2022-09-16T23:11:34.498Z,98496.38
2022-09-16T23:14:03.032Z,98487.59
2022-09-16T23:16:34.348Z,98486.13
2022-09-16T23:19:04.882Z,98491.97
2022-09-16T23:21:33.066Z,98485.78
2022-09-16T23:24:03.199Z,98492.84
2022-09-16T23:26:33.153Z,98496.50
2022-09-16T23:29:02.505Z,98504.78
2022-09-16T23:31:34.172Z,98498.47
2022-09-16T23:34:07.579Z,98495.56
2022-09-16T23:36:37.691Z,98500.78
2022-09-16T23:39:06.891Z,98508.00
2022-09-16T23:41:36.108Z,98510.69
2022-09-16T23:44:04.722Z,98511.91
2022-09-16T23:46:34.623Z,98502.88
2022-09-16T23:49:03.232Z,98495.28
2022-09-16T23:51:32.363Z,98500.53
2022-09-16T23:54:01.152Z,98496.53
2022-09-16T23:56:29.355Z,98494.53
2022-09-16T23:59:00.824Z,98489.16
